Time;durP1;ratioP1;P1;durP2;ratioP2;P2;SDS_P1;SDS_P2;PMS_P1;PMS_P2;Temp;Humidity;BMP_temperature;BMP_pressure;BME280_temperature;BME280_humidity;BME280_pressure;Samples;Min_cycle;Max_cycle;Signal;HPM_P1;HPM_P2
2022/10/22 00:01:23;;;;;;;17.73;6.43;;;;;;;;;;5044349;28;20021;-79
2022/10/22 00:03:51;;;;;;;18.83;6.47;;;;;;;;;;5046170;28;20105;-78
2022/10/22 00:06:16;;;;;;;16.95;6.72;;;;;;;;;;5045532;28;20036;-80
2022/10/22 00:08:41;;;;;;;17.65;7.07;;;;;;;;;;5045052;28;22142;-79
2022/10/22 00:11:12;;;;;;;22.02;7.60;;;;;;;;;;5033717;28;20045;-79
2022/10/22 00:13:38;;;;;;;19.38;8.25;;;;;;;;;;5025346;28;20583;-80
2022/10/22 00:16:03;;;;;;;21.60;8.23;;;;;;;;;;5032281;28;20024;-79
2022/10/22 00:18:28;;;;;;;18.00;7.18;;;;;;;;;;5031436;28;20033;-79
2022/10/22 00:20:54;;;;;;;17.92;6.30;;;;;;;;;;5032897;28;20171;-79
2022/10/22 00:23:20;;;;;;;17.77;6.57;;;;;;;;;;5026650;28;20116;-79
2022/10/22 00:25:46;;;;;;;13.65;5.68;;;;;;;;;;5028054;28;20577;-80
2022/10/22 00:28:14;;;;;;;16.15;5.93;;;;;;;;;;5027107;28;20192;-79
2022/10/22 00:30:40;;;;;;;14.15;4.53;;;;;;;;;;5037643;28;20710;-80
2022/10/22 00:33:05;;;;;;;16.65;5.13;;;;;;;;;;5031243;28;20038;-79
2022/10/22 00:35:31;;;;;;;15.50;5.22;;;;;;;;;;5050718;28;20040;-79
2022/10/22 00:37:58;;;;;;;15.15;5.20;;;;;;;;;;5055283;28;20043;-79
2022/10/22 00:40:24;;;;;;;13.73;4.78;;;;;;;;;;5040259;28;20368;-80
2022/10/22 00:42:51;;;;;;;13.85;5.50;;;;;;;;;;5041244;28;20186;-76
2022/10/22 00:45:22;;;;;;;16.75;5.05;;;;;;;;;;5045936;28;20048;-80
2022/10/22 00:47:56;;;;;;;13.05;4.95;;;;;;;;;;5042756;28;20029;-79
2022/10/22 00:50:33;;;;;;;16.88;5.10;;;;;;;;;;5058246;28;20040;-79
2022/10/22 00:52:59;;;;;;;12.98;4.57;;;;;;;;;;5050984;28;20039;-79
2022/10/22 00:55:26;;;;;;;12.85;4.75;;;;;;;;;;5046416;28;20029;-78
2022/10/22 00:57:53;;;;;;;14.95;4.78;;;;;;;;;;5051093;28;20401;-79
2022/10/22 01:00:21;;;;;;;13.15;4.55;;;;;;;;;;5049619;28;20025;-79
2022/10/22 01:02:47;;;;;;;16.40;5.78;;;;;;;;;;5059424;28;20029;-78
2022/10/22 01:05:13;;;;;;;15.18;5.40;;;;;;;;;;5052607;28;20044;-79
2022/10/22 01:07:43;;;;;;;18.67;5.28;;;;;;;;;;5039069;28;20029;-78
2022/10/22 01:10:11;;;;;;;17.17;5.50;;;;;;;;;;5046217;28;20472;-78
2022/10/22 01:12:39;;;;;;;13.38;5.00;;;;;;;;;;5063495;28;20405;-77
2022/10/22 01:15:25;;;;;;;20.48;5.18;;;;;;;;;;5063803;27;20044;-78
2022/10/22 01:17:51;;;;;;;14.43;4.47;;;;;;;;;;5061222;28;20033;-79
2022/10/22 01:20:22;;;;;;;11.75;4.70;;;;;;;;;;5041539;28;20029;-77
2022/10/22 01:23:01;;;;;;;13.30;4.57;;;;;;;;;;5040659;28;20053;-79
2022/10/22 01:25:35;;;;;;;14.90;4.60;;;;;;;;;;5071968;28;20043;-78
2022/10/22 01:28:21;;;;;;;19.45;4.80;;;;;;;;;;5049116;28;20032;-79
2022/10/22 01:30:48;;;;;;;15.63;4.43;;;;;;;;;;5040490;28;20037;-79
2022/10/22 01:33:16;;;;;;;15.15;4.20;;;;;;;;;;5050280;28;20028;-79
2022/10/22 01:35:43;;;;;;;15.98;5.43;;;;;;;;;;5035207;28;20059;-79
2022/10/22 01:38:11;;;;;;;17.58;5.68;;;;;;;;;;5046150;28;20025;-80
2022/10/22 01:40:37;;;;;;;13.65;5.20;;;;;;;;;;5023832;28;20216;-78
2022/10/22 01:43:09;;;;;;;19.27;5.32;;;;;;;;;;5024266;28;20037;-78
2022/10/22 01:45:41;;;;;;;16.83;5.80;;;;;;;;;;5022784;28;20995;-78
2022/10/22 01:48:09;;;;;;;15.30;5.70;;;;;;;;;;5029208;28;20039;-77
2022/10/22 01:50:45;;;;;;;16.33;6.13;;;;;;;;;;5042354;28;20152;-77
2022/10/22 01:53:10;;;;;;;24.90;7.07;;;;;;;;;;5040593;28;20033;-78
2022/10/22 01:55:38;;;;;;;22.23;6.32;;;;;;;;;;5036330;28;20252;-80
2022/10/22 01:58:30;;;;;;;19.92;6.65;;;;;;;;;;5026880;28;20386;-80
2022/10/22 02:00:58;;;;;;;20.58;7.13;;;;;;;;;;5015733;28;20407;-79
2022/10/22 02:03:27;;;;;;;24.30;7.05;;;;;;;;;;5037107;28;20061;-79
2022/10/22 02:06:04;;;;;;;21.48;5.97;;;;;;;;;;5059772;28;20119;-78
2022/10/22 02:08:31;;;;;;;20.10;5.38;;;;;;;;;;5046313;28;20064;-78
2022/10/22 02:10:57;;;;;;;18.13;5.95;;;;;;;;;;5052086;28;20037;-79
2022/10/22 02:13:31;;;;;;;19.08;6.78;;;;;;;;;;5050471;28;20137;-78
2022/10/22 02:15:57;;;;;;;17.27;5.05;;;;;;;;;;5048117;28;20116;-79
2022/10/22 02:18:25;;;;;;;19.98;6.03;;;;;;;;;;5052563;28;20086;-79
2022/10/22 02:20:52;;;;;;;27.23;8.10;;;;;;;;;;5047796;28;20401;-79
2022/10/22 02:23:18;;;;;;;29.17;8.00;;;;;;;;;;5043936;28;20057;-79
2022/10/22 02:25:48;;;;;;;36.90;10.82;;;;;;;;;;5036849;28;20667;-78
2022/10/22 02:28:24;;;;;;;29.40;10.00;;;;;;;;;;5035576;28;20039;-79
2022/10/22 02:30:55;;;;;;;34.03;11.23;;;;;;;;;;5039871;28;20559;-79
2022/10/22 02:33:23;;;;;;;35.80;12.13;;;;;;;;;;5036192;28;20029;-78
2022/10/22 02:35:50;;;;;;;32.53;10.60;;;;;;;;;;5032804;28;20064;-78
2022/10/22 02:38:16;;;;;;;37.17;9.50;;;;;;;;;;5017486;28;20029;-77
2022/10/22 02:40:41;;;;;;;36.92;11.68;;;;;;;;;;5026756;28;20520;-78
2022/10/22 02:43:07;;;;;;;37.53;12.07;;;;;;;;;;5016545;28;20036;-78
2022/10/22 02:45:33;;;;;;;34.25;10.60;;;;;;;;;;5020544;28;20047;-79
2022/10/22 02:47:59;;;;;;;35.40;11.80;;;;;;;;;;5023543;28;20797;-79
2022/10/22 02:50:24;;;;;;;43.33;13.55;;;;;;;;;;5059108;28;22702;-79
2022/10/22 02:52:49;;;;;;;37.95;12.40;;;;;;;;;;5035981;28;20033;-79
2022/10/22 02:55:18;;;;;;;37.10;14.07;;;;;;;;;;5035381;28;20283;-80
2022/10/22 02:57:44;;;;;;;36.50;13.13;;;;;;;;;;5027880;28;20032;-78
2022/10/22 03:00:10;;;;;;;41.10;13.38;;;;;;;;;;5014536;28;20057;-78
2022/10/22 03:02:35;;;;;;;38.55;13.50;;;;;;;;;;5014158;28;20071;-78
2022/10/22 03:05:00;;;;;;;41.75;13.98;;;;;;;;;;5012609;28;20220;-78
2022/10/22 03:07:26;;;;;;;45.55;14.50;;;;;;;;;;5022857;28;20044;-78
2022/10/22 03:09:51;;;;;;;39.03;14.05;;;;;;;;;;5026473;28;20367;-78
2022/10/22 03:12:17;;;;;;;41.85;13.82;;;;;;;;;;5023508;28;20053;-78
2022/10/22 03:14:43;;;;;;;49.03;13.95;;;;;;;;;;5021261;28;20433;-79
2022/10/22 03:17:08;;;;;;;47.22;13.98;;;;;;;;;;5019894;28;20039;-78
2022/10/22 03:19:34;;;;;;;40.17;12.52;;;;;;;;;;5014994;28;20060;-78
2022/10/22 03:22:04;;;;;;;42.30;13.55;;;;;;;;;;5015087;28;20043;-78
2022/10/22 03:24:37;;;;;;;40.40;12.10;;;;;;;;;;5015895;28;20200;-79
2022/10/22 03:27:05;;;;;;;41.50;13.10;;;;;;;;;;5012335;28;20043;-79
2022/10/22 03:29:33;;;;;;;39.13;12.80;;;;;;;;;;5001199;28;20721;-79
2022/10/22 03:32:01;;;;;;;40.97;11.80;;;;;;;;;;5015684;28;20028;-79
2022/10/22 03:34:26;;;;;;;37.70;12.95;;;;;;;;;;5036449;28;20288;-79
2022/10/22 03:36:52;;;;;;;39.00;12.60;;;;;;;;;;5039719;28;20134;-78
2022/10/22 03:39:20;;;;;;;39.85;14.55;;;;;;;;;;5029997;28;20055;-79
2022/10/22 03:41:47;;;;;;;41.92;14.45;;;;;;;;;;5027877;28;20040;-78
2022/10/22 03:44:14;;;;;;;43.45;13.95;;;;;;;;;;5024693;28;20031;-79
2022/10/22 03:46:39;;;;;;;45.75;13.45;;;;;;;;;;5015015;28;20072;-77
2022/10/22 03:49:07;;;;;;;30.08;11.13;;;;;;;;;;5020632;28;20041;-78
2022/10/22 03:51:34;;;;;;;29.13;10.85;;;;;;;;;;5020427;28;20033;-78
2022/10/22 03:54:05;;;;;;;27.38;11.15;;;;;;;;;;5053390;28;20039;-76
2022/10/22 03:56:32;;;;;;;34.55;11.20;;;;;;;;;;5044141;28;20032;-79
2022/10/22 03:58:59;;;;;;;31.88;10.43;;;;;;;;;;5029414;28;20134;-79
2022/10/22 04:01:25;;;;;;;24.48;9.73;;;;;;;;;;5023028;28;20037;-79
2022/10/22 04:03:50;;;;;;;24.65;9.65;;;;;;;;;;5018434;28;20604;-78
2022/10/22 04:06:16;;;;;;;26.23;9.98;;;;;;;;;;5020698;28;20144;-79
2022/10/22 04:08:42;;;;;;;32.85;10.27;;;;;;;;;;5034807;28;20032;-79
2022/10/22 04:11:08;;;;;;;27.30;10.30;;;;;;;;;;5020772;28;20059;-78
2022/10/22 04:13:36;;;;;;;27.35;8.98;;;;;;;;;;5016729;28;20057;-78
2022/10/22 04:16:06;;;;;;;25.00;9.63;;;;;;;;;;5015438;28;20037;-78
2022/10/22 04:18:31;;;;;;;20.80;9.25;;;;;;;;;;5009931;28;20197;-78
2022/10/22 04:20:56;;;;;;;20.65;8.15;;;;;;;;;;4999704;28;20040;-78
2022/10/22 04:23:22;;;;;;;28.35;9.75;;;;;;;;;;5017672;28;20039;-78
2022/10/22 04:25:47;;;;;;;38.45;11.73;;;;;;;;;;5017068;28;20040;-78
2022/10/22 04:28:13;;;;;;;41.35;14.10;;;;;;;;;;5015987;28;20550;-78
2022/10/22 04:30:39;;;;;;;34.13;12.50;;;;;;;;;;5009941;28;20047;-78
2022/10/22 04:33:05;;;;;;;36.28;11.63;;;;;;;;;;5016674;28;20498;-80
2022/10/22 04:35:30;;;;;;;36.75;12.52;;;;;;;;;;5017895;28;20037;-80
2022/10/22 04:37:56;;;;;;;41.63;13.85;;;;;;;;;;5013212;28;20047;-79
2022/10/22 04:40:21;;;;;;;43.67;14.70;;;;;;;;;;5021914;28;20060;-79
2022/10/22 04:42:47;;;;;;;44.08;12.68;;;;;;;;;;5018857;28;20052;-79
2022/10/22 04:45:14;;;;;;;39.40;13.35;;;;;;;;;;5007445;28;20044;-78
2022/10/22 04:47:40;;;;;;;42.40;13.23;;;;;;;;;;5024718;28;20032;-79
2022/10/22 04:50:05;;;;;;;38.47;13.90;;;;;;;;;;5030568;28;20505;-79
2022/10/22 04:52:31;;;;;;;38.47;13.55;;;;;;;;;;5020950;28;20174;-81
2022/10/22 04:54:56;;;;;;;37.25;11.90;;;;;;;;;;5021089;28;20037;-79
2022/10/22 04:57:22;;;;;;;42.38;14.80;;;;;;;;;;5013298;28;20036;-78
2022/10/22 04:59:47;;;;;;;44.90;16.98;;;;;;;;;;5018884;28;20337;-78
2022/10/22 05:02:12;;;;;;;38.00;13.60;;;;;;;;;;5016095;28;20172;-78
2022/10/22 05:04:42;;;;;;;45.97;14.05;;;;;;;;;;5005570;28;20036;-78
2022/10/22 05:07:08;;;;;;;45.80;13.25;;;;;;;;;;5018266;28;22296;-77
2022/10/22 05:09:35;;;;;;;33.28;12.95;;;;;;;;;;5016065;28;20232;-78
2022/10/22 05:12:01;;;;;;;30.23;11.93;;;;;;;;;;5014799;28;20060;-79
2022/10/22 05:14:26;;;;;;;35.80;12.25;;;;;;;;;;5015215;28;20780;-78
2022/10/22 05:16:52;;;;;;;39.70;14.15;;;;;;;;;;5015110;28;20037;-78
2022/10/22 05:19:23;;;;;;;41.13;17.30;;;;;;;;;;5012432;28;20032;-77
2022/10/22 05:21:49;;;;;;;44.78;17.20;;;;;;;;;;5000372;28;20296;-77
2022/10/22 05:24:17;;;;;;;50.67;20.35;;;;;;;;;;5020539;28;20316;-77
2022/10/22 05:26:43;;;;;;;52.50;18.58;;;;;;;;;;5017713;28;25228;-77
2022/10/22 05:29:10;;;;;;;41.35;17.75;;;;;;;;;;5015403;28;20037;-72
2022/10/22 05:31:35;;;;;;;43.50;16.23;;;;;;;;;;5014385;28;20284;-72
2022/10/22 05:34:01;;;;;;;36.70;15.05;;;;;;;;;;5013931;28;20036;-74
2022/10/22 05:36:29;;;;;;;37.15;14.70;;;;;;;;;;5016255;28;20155;-74
2022/10/22 05:38:56;;;;;;;37.65;13.80;;;;;;;;;;5013092;28;20175;-72
2022/10/22 05:41:22;;;;;;;36.17;15.88;;;;;;;;;;5015495;28;20148;-72
2022/10/22 05:43:48;;;;;;;44.15;17.85;;;;;;;;;;5015241;28;20561;-73
2022/10/22 05:46:19;;;;;;;36.15;16.55;;;;;;;;;;5016232;28;20587;-72
2022/10/22 05:49:04;;;;;;;38.10;18.10;;;;;;;;;;5014030;28;20891;-73
2022/10/22 05:51:32;;;;;;;42.08;17.48;;;;;;;;;;5014382;28;20842;-72
2022/10/22 05:53:59;;;;;;;27.80;12.23;;;;;;;;;;5015205;28;20037;-72
2022/10/22 05:56:24;;;;;;;22.77;10.60;;;;;;;;;;5017484;28;20039;-73
2022/10/22 05:58:50;;;;;;;28.45;11.27;;;;;;;;;;5011660;28;20212;-72
2022/10/22 06:01:15;;;;;;;26.02;7.70;;;;;;;;;;5013408;28;20045;-72
2022/10/22 06:03:41;;;;;;;22.17;7.47;;;;;;;;;;5012720;28;20141;-73
2022/10/22 06:06:14;;;;;;;22.38;8.07;;;;;;;;;;5009764;28;20110;-72
2022/10/22 06:08:39;;;;;;;19.35;6.38;;;;;;;;;;5014427;28;20401;-72
2022/10/22 06:11:08;;;;;;;29.52;10.32;;;;;;;;;;5022106;28;20526;-71
2022/10/22 06:13:33;;;;;;;32.65;9.63;;;;;;;;;;5012091;28;20512;-71
2022/10/22 06:15:59;;;;;;;26.55;7.78;;;;;;;;;;5012856;28;20063;-71
2022/10/22 06:18:24;;;;;;;17.58;5.70;;;;;;;;;;5013408;28;20422;-72
2022/10/22 06:20:50;;;;;;;21.23;6.88;;;;;;;;;;5010899;28;20316;-72
2022/10/22 06:23:15;;;;;;;23.63;8.07;;;;;;;;;;5012814;28;20044;-71
2022/10/22 06:25:41;;;;;;;22.02;6.43;;;;;;;;;;5011457;28;20450;-72
2022/10/22 06:28:06;;;;;;;19.30;6.20;;;;;;;;;;5016927;28;20039;-71
2022/10/22 06:30:32;;;;;;;43.03;8.30;;;;;;;;;;5010203;28;20123;-72
2022/10/22 06:32:58;;;;;;;22.90;7.63;;;;;;;;;;5014124;28;20029;-71
2022/10/22 06:35:26;;;;;;;24.80;5.43;;;;;;;;;;5010652;28;20061;-71
2022/10/22 06:37:51;;;;;;;18.60;5.32;;;;;;;;;;5011665;28;20029;-72
2022/10/22 06:40:17;;;;;;;21.30;5.93;;;;;;;;;;5011763;28;20649;-71
2022/10/22 06:42:43;;;;;;;26.30;7.20;;;;;;;;;;4996400;28;20045;-73
2022/10/22 06:45:09;;;;;;;27.70;10.38;;;;;;;;;;5012633;28;20550;-72
2022/10/22 06:47:34;;;;;;;21.20;5.70;;;;;;;;;;5004132;28;20040;-72
2022/10/22 06:50:00;;;;;;;16.63;4.70;;;;;;;;;;5011890;28;20037;-71
2022/10/22 06:52:25;;;;;;;20.88;5.38;;;;;;;;;;5015183;28;20036;-72
2022/10/22 06:54:51;;;;;;;21.45;5.78;;;;;;;;;;5012921;28;20048;-71
2022/10/22 06:57:16;;;;;;;20.05;7.55;;;;;;;;;;5013890;28;21982;-71
2022/10/22 06:59:41;;;;;;;23.70;7.35;;;;;;;;;;5014508;28;20708;-70
2022/10/22 07:02:08;;;;;;;22.83;6.22;;;;;;;;;;5012133;28;20032;-70
2022/10/22 07:04:33;;;;;;;29.75;7.47;;;;;;;;;;5010769;28;20109;-70
2022/10/22 07:06:59;;;;;;;29.42;7.50;;;;;;;;;;5010906;28;20044;-71
2022/10/22 07:09:25;;;;;;;22.23;5.28;;;;;;;;;;5012541;28;20267;-71
2022/10/22 07:11:50;;;;;;;20.38;4.65;;;;;;;;;;5019259;28;20028;-70
2022/10/22 07:14:18;;;;;;;18.33;5.47;;;;;;;;;;5014867;28;20040;-71
2022/10/22 07:16:45;;;;;;;29.05;12.10;;;;;;;;;;5013930;28;20037;-71
2022/10/22 07:19:11;;;;;;;21.13;7.05;;;;;;;;;;5012888;28;20129;-71
2022/10/22 07:21:37;;;;;;;15.50;5.20;;;;;;;;;;5011574;28;20541;-71
2022/10/22 07:24:03;;;;;;;17.63;4.65;;;;;;;;;;5013890;28;20029;-71
2022/10/22 07:26:31;;;;;;;23.58;4.97;;;;;;;;;;5012797;28;20489;-71
2022/10/22 07:28:57;;;;;;;22.98;6.82;;;;;;;;;;5017306;28;20412;-71
2022/10/22 07:31:22;;;;;;;21.05;6.43;;;;;;;;;;5014748;28;20545;-71
2022/10/22 07:33:47;;;;;;;17.20;4.22;;;;;;;;;;5012265;28;20633;-71
2022/10/22 07:36:16;;;;;;;15.75;3.83;;;;;;;;;;5013969;28;20685;-72
2022/10/22 07:38:52;;;;;;;20.83;3.70;;;;;;;;;;5013530;28;20036;-71
2022/10/22 07:41:17;;;;;;;17.05;3.25;;;;;;;;;;5012175;28;21901;-71
2022/10/22 07:43:43;;;;;;;27.13;3.85;;;;;;;;;;5014261;28;20037;-71
2022/10/22 07:46:09;;;;;;;26.83;3.88;;;;;;;;;;5013190;28;20351;-70
2022/10/22 07:48:35;;;;;;;27.08;4.25;;;;;;;;;;5015202;28;20117;-72
2022/10/22 07:51:00;;;;;;;23.30;3.47;;;;;;;;;;5011521;28;20166;-70
2022/10/22 07:53:28;;;;;;;25.52;3.58;;;;;;;;;;5013372;28;20749;-72
2022/10/22 07:55:57;;;;;;;26.23;3.85;;;;;;;;;;5013200;28;20041;-70
2022/10/22 07:58:23;;;;;;;25.20;3.72;;;;;;;;;;5002692;28;20040;-71
2022/10/22 08:00:48;;;;;;;31.30;4.03;;;;;;;;;;5023464;28;20050;-72
2022/10/22 08:03:14;;;;;;;24.35;3.88;;;;;;;;;;5012664;28;20859;-71
2022/10/22 08:05:42;;;;;;;26.52;4.50;;;;;;;;;;5013672;28;20502;-72
2022/10/22 08:08:10;;;;;;;31.63;4.82;;;;;;;;;;5029750;28;20033;-70
2022/10/22 08:10:36;;;;;;;23.08;4.03;;;;;;;;;;5013723;28;20600;-70
2022/10/22 08:13:02;;;;;;;26.50;4.28;;;;;;;;;;5024710;28;20194;-70
2022/10/22 08:15:28;;;;;;;26.17;4.28;;;;;;;;;;5015208;28;20493;-70
2022/10/22 08:17:54;;;;;;;25.77;4.03;;;;;;;;;;5014643;28;20033;-71
2022/10/22 08:20:19;;;;;;;25.30;4.22;;;;;;;;;;5016283;28;20409;-72
2022/10/22 08:22:45;;;;;;;27.63;4.43;;;;;;;;;;5021476;28;20043;-70
2022/10/22 08:25:12;;;;;;;25.35;4.32;;;;;;;;;;5031009;28;20059;-70
2022/10/22 08:27:40;;;;;;;31.65;4.93;;;;;;;;;;5015099;28;20033;-71
2022/10/22 08:30:06;;;;;;;20.55;4.13;;;;;;;;;;5015060;28;20058;-71
2022/10/22 08:32:32;;;;;;;28.83;4.35;;;;;;;;;;5026277;28;20037;-69
2022/10/22 08:34:57;;;;;;;24.92;5.43;;;;;;;;;;5018356;28;20043;-71
2022/10/22 08:37:22;;;;;;;30.05;4.95;;;;;;;;;;5016722;28;20875;-74
2022/10/22 08:39:48;;;;;;;25.15;4.55;;;;;;;;;;5019282;28;20037;-70
2022/10/22 08:42:19;;;;;;;23.30;4.43;;;;;;;;;;5019901;28;20809;-71
2022/10/22 08:45:03;;;;;;;30.15;4.93;;;;;;;;;;5018741;28;20043;-72
2022/10/22 08:47:37;;;;;;;26.40;4.88;;;;;;;;;;5019178;28;20108;-70
2022/10/22 08:50:08;;;;;;;25.15;4.57;;;;;;;;;;5017742;28;20050;-73
2022/10/22 08:52:34;;;;;;;22.13;4.15;;;;;;;;;;5015545;28;20041;-71
2022/10/22 08:55:01;;;;;;;25.73;4.30;;;;;;;;;;5018246;28;20122;-71
2022/10/22 08:57:32;;;;;;;24.75;4.00;;;;;;;;;;5017661;28;20889;-68
2022/10/22 09:00:09;;;;;;;26.73;3.88;;;;;;;;;;5018499;28;20153;-71
2022/10/22 09:02:47;;;;;;;28.17;5.10;;;;;;;;;;5017350;28;20753;-70
2022/10/22 09:05:44;;;;;;;30.13;4.68;;;;;;;;;;5019865;28;20152;-71
2022/10/22 09:08:11;;;;;;;25.02;6.15;;;;;;;;;;5017245;28;20033;-70
2022/10/22 09:10:38;;;;;;;29.63;4.70;;;;;;;;;;5014437;28;20181;-69
2022/10/22 09:13:04;;;;;;;23.10;3.97;;;;;;;;;;5016924;28;20036;-70
2022/10/22 09:15:30;;;;;;;24.52;3.92;;;;;;;;;;5014452;28;22275;-70
2022/10/22 09:18:04;;;;;;;31.90;5.30;;;;;;;;;;5017610;28;20047;-70
2022/10/22 09:21:02;;;;;;;27.50;4.90;;;;;;;;;;5016457;28;20907;-69
2022/10/22 09:23:35;;;;;;;34.10;5.38;;;;;;;;;;5006320;28;20047;-71
2022/10/22 09:26:01;;;;;;;29.25;5.78;;;;;;;;;;5015279;28;20197;-71
2022/10/22 09:28:27;;;;;;;21.80;4.63;;;;;;;;;;5032929;28;20166;-70
2022/10/22 09:30:52;;;;;;;28.38;5.03;;;;;;;;;;5015842;28;20051;-70
2022/10/22 09:33:21;;;;;;;32.00;5.18;;;;;;;;;;5016733;28;20040;-68
2022/10/22 09:35:46;;;;;;;35.88;5.80;;;;;;;;;;5015712;28;20036;-70
2022/10/22 09:38:12;;;;;;;32.47;5.22;;;;;;;;;;5015713;28;20713;-71
2022/10/22 09:40:45;;;;;;;29.83;4.35;;;;;;;;;;5019202;28;20039;-71
2022/10/22 09:43:11;;;;;;;23.27;3.80;;;;;;;;;;5018196;28;20152;-71
2022/10/22 09:45:37;;;;;;;39.50;5.25;;;;;;;;;;5018593;28;20157;-71
2022/10/22 09:48:27;;;;;;;35.08;5.80;;;;;;;;;;5022487;28;20037;-71
2022/10/22 09:51:11;;;;;;;42.25;4.88;;;;;;;;;;5018271;28;20033;-70
2022/10/22 09:53:40;;;;;;;30.48;3.33;;;;;;;;;;5016451;28;20041;-71
2022/10/22 09:56:16;;;;;;;34.05;3.88;;;;;;;;;;5016862;28;20033;-69
2022/10/22 09:58:48;;;;;;;23.38;3.42;;;;;;;;;;5007786;28;20032;-70
2022/10/22 10:01:39;;;;;;;30.25;3.88;;;;;;;;;;5017552;28;20040;-70
2022/10/22 10:04:15;;;;;;;25.95;4.50;;;;;;;;;;5017060;28;20050;-70
2022/10/22 10:06:42;;;;;;;26.23;4.03;;;;;;;;;;5017839;28;20199;-70
2022/10/22 10:09:18;;;;;;;19.65;2.92;;;;;;;;;;5016111;28;20191;-72
2022/10/22 10:12:03;;;;;;;27.70;3.50;;;;;;;;;;5016290;28;20040;-70
2022/10/22 10:14:43;;;;;;;16.00;3.22;;;;;;;;;;5016434;28;20024;-71
2022/10/22 10:17:24;;;;;;;24.00;3.40;;;;;;;;;;5030415;28;20041;-71
2022/10/22 10:19:55;;;;;;;25.45;3.42;;;;;;;;;;5018101;28;20120;-71
2022/10/22 10:22:27;;;;;;;18.93;3.00;;;;;;;;;;5019767;28;20036;-72
2022/10/22 10:24:52;;;;;;;33.17;4.47;;;;;;;;;;5017366;28;20086;-71
2022/10/22 10:27:29;;;;;;;28.13;4.57;;;;;;;;;;5017658;28;20842;-71
2022/10/22 10:30:17;;;;;;;22.17;3.08;;;;;;;;;;5018110;28;20039;-71
2022/10/22 10:33:04;;;;;;;20.55;3.15;;;;;;;;;;5016460;28;21667;-71
2022/10/22 10:35:42;;;;;;;28.35;3.88;;;;;;;;;;5017827;28;20511;-70
2022/10/22 10:38:07;;;;;;;29.50;4.07;;;;;;;;;;5028643;28;20178;-71
2022/10/22 10:40:35;;;;;;;23.85;3.40;;;;;;;;;;5013685;28;20594;-71
2022/10/22 10:43:14;;;;;;;33.72;4.55;;;;;;;;;;5011702;28;20250;-71
2022/10/22 10:45:50;;;;;;;27.88;3.95;;;;;;;;;;5012802;28;20052;-71
2022/10/22 10:48:27;;;;;;;28.83;4.05;;;;;;;;;;5015080;28;20536;-69
2022/10/22 10:50:53;;;;;;;33.78;4.65;;;;;;;;;;5015235;28;20355;-71
2022/10/22 10:53:20;;;;;;;31.92;4.40;;;;;;;;;;5015460;28;20033;-71
2022/10/22 10:56:03;;;;;;;30.25;4.18;;;;;;;;;;5013368;28;20033;-71
2022/10/22 10:58:44;;;;;;;29.80;4.00;;;;;;;;;;5013207;28;20127;-71
2022/10/22 11:01:23;;;;;;;26.25;3.75;;;;;;;;;;5014541;28;20054;-70
2022/10/22 11:04:04;;;;;;;16.80;2.67;;;;;;;;;;5008448;28;20405;-71
2022/10/22 11:06:31;;;;;;;20.45;2.97;;;;;;;;;;5014051;28;20036;-71
2022/10/22 11:09:01;;;;;;;17.15;3.13;;;;;;;;;;5027932;28;20741;-71
2022/10/22 11:11:35;;;;;;;25.75;3.70;;;;;;;;;;5012990;28;20479;-70
2022/10/22 11:14:17;;;;;;;29.75;11.00;;;;;;;;;;5011553;28;20036;-70
2022/10/22 11:16:48;;;;;;;22.52;3.00;;;;;;;;;;5010880;28;20037;-68
2022/10/22 11:19:35;;;;;;;18.92;3.08;;;;;;;;;;5010942;28;20063;-70
2022/10/22 11:22:06;;;;;;;20.88;3.58;;;;;;;;;;5015495;28;20040;-71
2022/10/22 11:24:34;;;;;;;26.45;4.13;;;;;;;;;;4992674;28;20531;-70
2022/10/22 11:27:02;;;;;;;29.23;3.95;;;;;;;;;;5017218;28;20711;-69
2022/10/22 11:29:34;;;;;;;21.05;3.45;;;;;;;;;;5014991;28;20982;-70
2022/10/22 11:32:00;;;;;;;23.73;6.43;;;;;;;;;;5017061;28;20253;-70
2022/10/22 11:34:26;;;;;;;24.38;3.70;;;;;;;;;;5013354;28;20118;-69
2022/10/22 11:36:52;;;;;;;25.20;4.28;;;;;;;;;;5013591;28;20377;-69
2022/10/22 11:39:39;;;;;;;24.30;3.70;;;;;;;;;;5016256;28;20032;-70
2022/10/22 11:42:10;;;;;;;31.08;4.47;;;;;;;;;;5008066;28;20051;-71
2022/10/22 11:44:58;;;;;;;27.67;4.10;;;;;;;;;;5003348;28;20486;-70
2022/10/22 11:47:24;;;;;;;24.90;3.97;;;;;;;;;;5012405;28;20052;-68
2022/10/22 11:49:58;;;;;;;22.83;3.58;;;;;;;;;;5011946;28;20327;-70
2022/10/22 11:52:47;;;;;;;24.10;3.78;;;;;;;;;;5012796;28;20666;-68
2022/10/22 11:55:32;;;;;;;30.50;4.22;;;;;;;;;;5006598;28;20040;-68
2022/10/22 11:57:59;;;;;;;27.77;4.22;;;;;;;;;;5015371;28;20263;-69
2022/10/22 12:00:45;;;;;;;24.77;3.42;;;;;;;;;;5017317;28;20066;-69
2022/10/22 12:03:23;;;;;;;28.25;3.88;;;;;;;;;;5016280;28;20098;-69
2022/10/22 12:06:01;;;;;;;33.35;4.70;;;;;;;;;;5015658;28;20476;-68
2022/10/22 12:08:27;;;;;;;25.65;3.70;;;;;;;;;;5016329;28;20381;-69
2022/10/22 12:10:58;;;;;;;22.60;4.13;;;;;;;;;;5015837;28;20664;-68
2022/10/22 12:13:25;;;;;;;24.27;3.50;;;;;;;;;;5016687;28;20142;-67
2022/10/22 12:15:53;;;;;;;27.67;4.55;;;;;;;;;;5016153;28;20043;-68
2022/10/22 12:18:22;;;;;;;24.80;4.20;;;;;;;;;;5015897;28;20380;-71
2022/10/22 12:20:51;;;;;;;35.60;5.47;;;;;;;;;;5015445;28;20037;-71
2022/10/22 12:23:17;;;;;;;27.20;4.05;;;;;;;;;;5015691;28;20256;-68
2022/10/22 12:25:44;;;;;;;32.63;4.80;;;;;;;;;;5015456;28;20044;-70
2022/10/22 12:28:10;;;;;;;28.10;4.72;;;;;;;;;;5016528;28;20036;-70
2022/10/22 12:30:36;;;;;;;30.00;4.15;;;;;;;;;;5015061;28;20029;-71
2022/10/22 12:33:03;;;;;;;35.78;5.15;;;;;;;;;;5019720;28;20119;-67
2022/10/22 12:35:31;;;;;;;28.65;4.68;;;;;;;;;;5015438;28;20295;-68
2022/10/22 12:37:59;;;;;;;30.90;4.05;;;;;;;;;;5014428;28;20033;-69
2022/10/22 12:40:25;;;;;;;21.60;3.75;;;;;;;;;;5016074;28;20525;-70
2022/10/22 12:42:50;;;;;;;22.08;4.10;;;;;;;;;;5016183;28;20576;-71
2022/10/22 12:45:17;;;;;;;29.95;4.65;;;;;;;;;;5015395;28;21975;-67
2022/10/22 12:47:46;;;;;;;30.05;5.22;;;;;;;;;;5015176;28;20456;-69
2022/10/22 12:50:16;;;;;;;35.45;4.47;;;;;;;;;;5013596;28;20049;-69
2022/10/22 12:52:42;;;;;;;33.47;4.93;;;;;;;;;;5012357;28;20895;-68
2022/10/22 12:55:09;;;;;;;26.98;3.97;;;;;;;;;;5021120;28;20154;-67
2022/10/22 12:57:34;;;;;;;26.95;4.53;;;;;;;;;;5015440;28;20061;-68
2022/10/22 13:00:00;;;;;;;29.83;4.90;;;;;;;;;;5022296;28;20031;-70
2022/10/22 13:02:28;;;;;;;21.00;3.90;;;;;;;;;;5016198;28;20040;-71
2022/10/22 13:05:37;;;;;;;23.98;3.65;;;;;;;;;;5017089;28;20515;-69
2022/10/22 13:08:07;;;;;;;23.27;3.65;;;;;;;;;;4999887;28;20114;-70
2022/10/22 13:10:34;;;;;;;25.67;4.50;;;;;;;;;;4974995;28;20029;-70
2022/10/22 13:13:05;;;;;;;21.63;4.40;;;;;;;;;;4998898;28;20802;-70
2022/10/22 13:15:30;;;;;;;30.90;5.63;;;;;;;;;;5024065;28;20029;-71
2022/10/22 13:18:15;;;;;;;22.50;3.70;;;;;;;;;;5026831;28;20064;-70
2022/10/22 13:20:57;;;;;;;22.40;4.53;;;;;;;;;;5016291;28;20206;-71
2022/10/22 13:23:24;;;;;;;24.67;4.72;;;;;;;;;;5015758;28;20067;-68
2022/10/22 13:26:15;;;;;;;33.78;5.95;;;;;;;;;;5016549;28;20158;-71
2022/10/22 13:28:43;;;;;;;30.52;5.03;;;;;;;;;;5017546;28;20044;-71
2022/10/22 13:31:19;;;;;;;34.05;5.15;;;;;;;;;;5018582;28;20036;-69
2022/10/22 13:33:45;;;;;;;33.85;5.45;;;;;;;;;;5017640;28;20075;-70
2022/10/22 13:36:14;;;;;;;30.02;5.28;;;;;;;;;;5017163;28;20035;-70
2022/10/22 13:38:40;;;;;;;37.58;5.40;;;;;;;;;;5016858;28;20043;-70
2022/10/22 13:41:17;;;;;;;26.27;5.15;;;;;;;;;;5017739;28;20036;-71
2022/10/22 13:43:42;;;;;;;40.20;6.05;;;;;;;;;;4998663;28;20167;-71
2022/10/22 13:46:08;;;;;;;28.55;5.60;;;;;;;;;;4998495;28;20509;-72
2022/10/22 13:48:33;;;;;;;28.58;5.72;;;;;;;;;;5002198;28;20065;-71
2022/10/22 13:50:58;;;;;;;32.17;6.10;;;;;;;;;;4998012;28;20057;-71
2022/10/22 13:53:25;;;;;;;21.95;4.68;;;;;;;;;;5001617;28;20135;-70
2022/10/22 13:55:52;;;;;;;42.90;5.50;;;;;;;;;;4996383;28;20048;-70
2022/10/22 13:58:18;;;;;;;30.65;5.63;;;;;;;;;;4997300;28;20048;-72
2022/10/22 14:00:55;;;;;;;32.25;5.60;;;;;;;;;;4996747;28;20040;-71
2022/10/22 14:03:22;;;;;;;34.53;5.07;;;;;;;;;;4995476;28;20044;-73
2022/10/22 14:05:48;;;;;;;27.25;4.80;;;;;;;;;;4998074;28;20133;-71
2022/10/22 14:08:15;;;;;;;36.45;5.40;;;;;;;;;;4999780;28;22451;-70
2022/10/22 14:10:40;;;;;;;31.40;6.13;;;;;;;;;;5016237;28;20741;-69
2022/10/22 14:13:06;;;;;;;39.22;6.22;;;;;;;;;;5014909;28;20040;-75
2022/10/22 14:15:32;;;;;;;48.03;6.53;;;;;;;;;;5007082;28;20079;-70
2022/10/22 14:17:58;;;;;;;42.80;6.22;;;;;;;;;;5018217;28;20044;-71
2022/10/22 14:20:25;;;;;;;41.38;5.68;;;;;;;;;;5017364;28;20037;-71
2022/10/22 14:22:54;;;;;;;40.22;6.55;;;;;;;;;;5016440;28;20040;-71
2022/10/22 14:25:20;;;;;;;39.53;6.60;;;;;;;;;;5013355;28;20126;-72
2022/10/22 14:27:45;;;;;;;42.08;6.60;;;;;;;;;;5017986;28;20033;-72
2022/10/22 14:30:29;;;;;;;37.08;5.97;;;;;;;;;;5031285;28;20032;-70
2022/10/22 14:32:56;;;;;;;31.48;6.05;;;;;;;;;;5015716;28;20126;-70
2022/10/22 14:35:22;;;;;;;40.45;5.53;;;;;;;;;;5016041;28;24687;-71
2022/10/22 14:37:47;;;;;;;37.95;5.47;;;;;;;;;;5016354;28;20037;-71